createdAt,value
2023-05-22T00:01:17.045Z,100459.63
2023-05-22T00:03:43.417Z,100459.28
2023-05-22T00:06:09.790Z,100451.16
2023-05-22T00:08:36.149Z,100451.03
2023-05-22T00:11:02.752Z,100448.59
2023-05-22T00:13:29.116Z,100444.34
2023-05-22T00:15:55.633Z,100446.25
2023-05-22T00:18:22.052Z,100452.31
2023-05-22T00:20:48.412Z,100448.72
2023-05-22T00:23:15.766Z,100451.03
2023-05-22T00:25:42.202Z,100449.94
2023-05-22T00:28:08.644Z,100451.13
2023-05-22T00:30:36.665Z,100441.41
2023-05-22T00:33:03.300Z,100441.81
2023-05-22T00:35:29.863Z,100440.16
2023-05-22T00:37:56.257Z,100449.50
2023-05-22T00:40:22.685Z,100451.31
2023-05-22T00:42:49.055Z,100454.84
2023-05-22T00:45:15.705Z,100475.91
2023-05-22T00:47:42.160Z,100485.22
2023-05-22T00:50:10.678Z,100467.53
2023-05-22T00:52:40.535Z,100467.38
2023-05-22T00:55:07.908Z,100476.34
2023-05-22T00:57:35.293Z,100477.28
2023-05-22T01:00:03.412Z,100465.47
2023-05-22T01:02:29.965Z,100462.06
2023-05-22T01:04:56.399Z,100460.34
2023-05-22T01:07:22.790Z,100459.88
2023-05-22T01:09:49.386Z,100462.03
2023-05-22T01:12:53.607Z,100444.31
2023-05-22T01:15:31.829Z,100442.19
2023-05-22T01:18:13.718Z,100440.34
2023-05-22T01:20:51.207Z,100449.19
2023-05-22T01:23:42.234Z,100453.91
2023-05-22T01:26:33.595Z,100452.03
2023-05-22T01:29:23.831Z,100440.53
2023-05-22T01:31:52.557Z,100436.34
2023-05-22T01:34:21.377Z,100437.50
2023-05-22T01:36:49.581Z,100441.03
2023-05-22T01:39:17.897Z,100432.25
2023-05-22T01:41:44.998Z,100438.13
2023-05-22T01:44:11.344Z,100434.72
2023-05-22T01:46:37.680Z,100426.84
2023-05-22T01:49:04.189Z,100432.50
2023-05-22T01:51:43.479Z,100434.59
2023-05-22T01:54:24.574Z,100431.81
2023-05-22T01:56:59.263Z,100437.06
2023-05-22T01:59:42.916Z,100432.31
2023-05-22T02:02:11.437Z,100432.56
2023-05-22T02:04:42.322Z,100425.34
2023-05-22T02:07:12.619Z,100431.06
2023-05-22T02:09:40.958Z,100434.06
2023-05-22T02:12:08.205Z,100429.22
2023-05-22T02:14:35.339Z,100418.66
2023-05-22T02:17:01.793Z,100421.13
2023-05-22T02:19:28.522Z,100407.63
2023-05-22T02:21:54.911Z,100410.03
2023-05-22T02:24:21.274Z,100412.09
2023-05-22T02:26:47.639Z,100405.00
2023-05-22T02:29:13.993Z,100399.63
2023-05-22T02:31:40.371Z,100411.50
2023-05-22T02:34:07.075Z,100416.34
2023-05-22T02:36:33.526Z,100404.94
2023-05-22T02:38:59.883Z,100403.91
2023-05-22T02:41:26.252Z,100399.06
2023-05-22T02:43:52.634Z,100399.09
2023-05-22T02:46:19.113Z,100400.00
2023-05-22T02:48:45.530Z,100399.03
2023-05-22T02:51:11.915Z,100405.16
2023-05-22T02:53:38.325Z,100400.56
2023-05-22T02:56:05.150Z,100401.97
2023-05-22T02:58:31.508Z,100394.00
2023-05-22T03:00:57.862Z,100397.47
2023-05-22T03:03:24.339Z,100393.06
2023-05-22T03:05:50.902Z,100391.78
2023-05-22T03:08:17.243Z,100391.72
2023-05-22T03:10:43.607Z,100390.19
2023-05-22T03:13:09.989Z,100392.34
2023-05-22T03:15:36.382Z,100382.97
2023-05-22T03:18:02.795Z,100389.81
2023-05-22T03:20:29.158Z,100388.75
2023-05-22T03:22:55.575Z,100398.94
2023-05-22T03:25:22.221Z,100388.53
2023-05-22T03:27:48.578Z,100391.88
2023-05-22T03:30:15.159Z,100389.81
2023-05-22T03:32:41.535Z,100391.59
2023-05-22T03:35:08.396Z,100388.16
2023-05-22T03:37:34.778Z,100391.53
2023-05-22T03:40:01.146Z,100381.75
2023-05-22T03:42:27.495Z,100382.00
2023-05-22T03:44:53.825Z,100387.00
2023-05-22T03:47:20.198Z,100388.16
2023-05-22T03:49:46.567Z,100389.00
2023-05-22T03:52:12.984Z,100386.72
2023-05-22T03:54:39.331Z,100370.91
2023-05-22T03:57:05.769Z,100369.28
2023-05-22T03:59:32.165Z,100376.81
2023-05-22T04:01:58.634Z,100370.97
2023-05-22T04:04:25.006Z,100371.59
2023-05-22T04:06:51.353Z,100373.13
2023-05-22T04:09:17.745Z,100375.41
2023-05-22T04:11:44.109Z,100374.38
2023-05-22T04:14:10.500Z,100375.16
2023-05-22T04:16:36.847Z,100370.16
2023-05-22T04:19:03.515Z,100371.75
2023-05-22T04:21:31.222Z,100376.34
2023-05-22T04:23:57.567Z,100379.31
2023-05-22T04:26:23.903Z,100371.53
2023-05-22T04:28:50.285Z,100370.63
2023-05-22T04:31:16.667Z,100373.22
2023-05-22T04:33:43.030Z,100376.53
2023-05-22T04:36:11.663Z,100371.28
2023-05-22T04:38:38.910Z,100376.53
2023-05-22T04:41:05.295Z,100372.22
2023-05-22T04:43:31.657Z,100380.72
2023-05-22T04:45:58.016Z,100375.63
2023-05-22T04:48:24.400Z,100379.63
2023-05-22T04:50:50.765Z,100380.53
2023-05-22T04:53:17.125Z,100384.19
2023-05-22T04:55:43.845Z,100393.69
2023-05-22T04:58:10.208Z,100399.28
2023-05-22T05:00:36.592Z,100394.81
2023-05-22T05:03:04.319Z,100399.03
2023-05-22T05:05:30.802Z,100401.34
2023-05-22T05:07:57.200Z,100398.00
2023-05-22T05:10:23.618Z,100396.53
2023-05-22T05:12:49.966Z,100406.13
2023-05-22T05:15:16.517Z,100393.56
2023-05-22T05:17:42.960Z,100387.91
2023-05-22T05:20:09.725Z,100392.31
2023-05-22T05:22:36.334Z,100388.75
2023-05-22T05:25:03.042Z,100378.09
2023-05-22T05:27:29.440Z,100396.06
2023-05-22T05:29:55.809Z,100391.47
2023-05-22T05:32:22.324Z,100392.28
2023-05-22T05:34:48.915Z,100388.28
2023-05-22T05:37:15.351Z,100387.75
2023-05-22T05:39:41.785Z,100380.91
2023-05-22T05:42:08.332Z,100385.50
2023-05-22T05:44:34.719Z,100387.69
2023-05-22T05:47:01.170Z,100385.25
2023-05-22T05:49:27.572Z,100393.25
2023-05-22T05:51:53.948Z,100388.13
2023-05-22T05:54:20.317Z,100389.53
2023-05-22T05:56:46.755Z,100380.34
2023-05-22T05:59:13.139Z,100381.78
2023-05-22T06:01:44.541Z,100384.59
2023-05-22T06:04:11.059Z,100384.22
2023-05-22T06:06:38.008Z,100380.81
2023-05-22T06:09:05.067Z,100378.09
2023-05-22T06:11:31.945Z,100385.38
2023-05-22T06:13:58.468Z,100382.84
2023-05-22T06:16:25.743Z,100380.34
2023-05-22T06:18:52.470Z,100383.97
2023-05-22T06:21:19.414Z,100382.25
2023-05-22T06:23:45.775Z,100384.81
2023-05-22T06:26:12.265Z,100377.59
2023-05-22T06:28:38.594Z,100380.47
2023-05-22T06:31:05.005Z,100379.47
2023-05-22T06:33:31.464Z,100380.72
2023-05-22T06:35:57.895Z,100375.72
2023-05-22T06:38:24.249Z,100380.19
2023-05-22T06:40:50.607Z,100375.81
2023-05-22T06:43:16.957Z,100378.69
2023-05-22T06:45:43.578Z,100376.59
2023-05-22T06:48:10.039Z,100376.84
2023-05-22T06:50:36.401Z,100384.97
2023-05-22T06:53:02.821Z,100378.44
2023-05-22T06:55:29.147Z,100370.22
2023-05-22T06:57:55.509Z,100377.69
2023-05-22T07:00:22.198Z,100378.28
2023-05-22T07:02:48.653Z,100378.91
2023-05-22T07:05:15.127Z,100385.94
2023-05-22T07:07:41.481Z,100383.97
2023-05-22T07:10:08.233Z,100376.16
2023-05-22T07:12:34.584Z,100378.91
2023-05-22T07:15:00.938Z,100374.78
2023-05-22T07:17:27.624Z,100383.56
2023-05-22T07:19:53.994Z,100382.44
2023-05-22T07:22:20.476Z,100379.34
2023-05-22T07:24:46.864Z,100382.84
2023-05-22T07:27:13.642Z,100375.94
2023-05-22T07:29:40.008Z,100384.38
2023-05-22T07:32:06.689Z,100374.97
2023-05-22T07:34:33.109Z,100389.06
2023-05-22T07:37:00.864Z,100383.63
2023-05-22T07:39:27.356Z,100379.91
2023-05-22T07:41:54.601Z,100379.97
2023-05-22T07:44:22.481Z,100371.97
2023-05-22T07:46:48.910Z,100379.72
2023-05-22T07:49:15.529Z,100377.78
2023-05-22T07:51:41.858Z,100382.13
2023-05-22T07:54:08.496Z,100384.31
2023-05-22T07:56:34.890Z,100381.03
2023-05-22T07:59:01.228Z,100383.97
2023-05-22T08:01:27.593Z,100384.09
2023-05-22T08:03:54.196Z,100389.78
2023-05-22T08:06:20.702Z,100387.03
2023-05-22T08:08:47.080Z,100392.22
2023-05-22T08:11:13.453Z,100384.69
2023-05-22T08:13:39.813Z,100385.97
2023-05-22T08:16:06.743Z,100391.25
2023-05-22T08:18:33.098Z,100384.03
2023-05-22T08:20:59.450Z,100387.31
2023-05-22T08:23:25.796Z,100380.69
2023-05-22T08:25:52.153Z,100378.19
2023-05-22T08:28:18.525Z,100378.66
2023-05-22T08:30:44.921Z,100373.63
2023-05-22T08:33:11.398Z,100373.22
2023-05-22T08:35:37.776Z,100374.00
2023-05-22T08:38:04.186Z,100371.19
2023-05-22T08:40:38.546Z,100378.34
2023-05-22T08:43:06.199Z,100367.09
2023-05-22T08:45:33.741Z,100374.25
2023-05-22T08:48:04.809Z,100376.63
2023-05-22T08:50:31.681Z,100377.53
2023-05-22T08:53:00.819Z,100375.56
2023-05-22T08:55:27.669Z,100377.63
2023-05-22T08:57:56.753Z,100369.66
2023-05-22T09:00:23.194Z,100365.66
2023-05-22T09:02:49.763Z,100362.09
2023-05-22T09:05:16.667Z,100371.25
2023-05-22T09:07:43.461Z,100358.56
2023-05-22T09:10:10.027Z,100358.56
2023-05-22T09:12:36.394Z,100360.13
2023-05-22T09:15:10.207Z,100352.94
2023-05-22T09:17:40.759Z,100353.03
2023-05-22T09:20:08.412Z,100363.31
2023-05-22T09:22:36.100Z,100358.56
2023-05-22T09:25:02.484Z,100356.19
2023-05-22T09:27:28.844Z,100356.56
2023-05-22T09:29:56.990Z,100361.72
2023-05-22T09:32:23.943Z,100357.72
2023-05-22T09:34:51.227Z,100356.19
2023-05-22T09:37:18.151Z,100354.56
2023-05-22T09:39:46.402Z,100356.94
2023-05-22T09:42:15.755Z,100358.91
2023-05-22T09:44:42.286Z,100358.19
2023-05-22T09:47:09.004Z,100355.34
2023-05-22T09:49:45.485Z,100354.50
2023-05-22T09:52:12.296Z,100353.00
2023-05-22T09:54:53.809Z,100348.91
2023-05-22T09:57:20.973Z,100358.97
2023-05-22T09:59:50.824Z,100354.41
2023-05-22T10:02:18.316Z,100354.69
2023-05-22T10:04:48.761Z,100351.09
2023-05-22T10:07:17.356Z,100343.88
2023-05-22T10:09:47.318Z,100350.47
2023-05-22T10:12:15.041Z,100350.78
2023-05-22T10:14:42.293Z,100343.50
2023-05-22T10:17:12.273Z,100354.44
2023-05-22T10:19:41.754Z,100347.59
2023-05-22T10:22:13.158Z,100347.63
2023-05-22T10:24:39.784Z,100344.69
2023-05-22T10:27:06.128Z,100341.56
2023-05-22T10:29:40.534Z,100342.03
2023-05-22T10:32:49.729Z,100345.91
2023-05-22T10:35:25.513Z,100339.44
2023-05-22T10:37:54.780Z,100335.41
2023-05-22T10:40:27.031Z,100329.34
2023-05-22T10:43:03.159Z,100335.16
2023-05-22T10:45:30.266Z,100334.22
2023-05-22T10:48:06.819Z,100329.31
2023-05-22T10:50:34.818Z,100328.56
2023-05-22T10:53:20.275Z,100331.34
2023-05-22T10:55:51.212Z,100324.16
2023-05-22T10:58:18.339Z,100320.66
2023-05-22T11:00:45.290Z,100314.06
2023-05-22T11:03:17.931Z,100318.03
2023-05-22T11:05:52.910Z,100314.19
2023-05-22T11:08:25.361Z,100311.25
2023-05-22T11:10:56.295Z,100310.13
2023-05-22T11:13:28.245Z,100309.09
2023-05-22T11:15:55.626Z,100304.16
2023-05-22T11:18:22.139Z,100297.03
2023-05-22T11:20:48.617Z,100303.53
2023-05-22T11:23:18.253Z,100302.06
2023-05-22T11:25:44.713Z,100300.22
2023-05-22T11:28:11.770Z,100295.91
2023-05-22T11:30:38.764Z,100294.25
2023-05-22T11:33:05.629Z,100290.91
2023-05-22T11:35:32.314Z,100293.44
2023-05-22T11:37:58.703Z,100284.94
2023-05-22T11:40:27.750Z,100290.69
2023-05-22T11:42:54.385Z,100287.28
2023-05-22T11:45:21.219Z,100286.09
2023-05-22T11:47:47.891Z,100285.47
2023-05-22T11:50:17.941Z,100277.00
2023-05-22T11:52:49.885Z,100284.84
2023-05-22T11:55:16.255Z,100281.03
2023-05-22T11:57:42.670Z,100277.47
2023-05-22T12:00:09.492Z,100271.03
2023-05-22T12:02:35.973Z,100260.75
2023-05-22T12:05:02.573Z,100264.63
2023-05-22T12:07:29.030Z,100250.91
2023-05-22T12:09:58.539Z,100256.72
2023-05-22T12:12:25.199Z,100257.00
2023-05-22T12:14:51.569Z,100259.06
2023-05-22T12:17:18.282Z,100261.81
2023-05-22T12:19:45.618Z,100257.34
2023-05-22T12:22:12.039Z,100247.25
2023-05-22T12:24:39.348Z,100260.38
2023-05-22T12:27:08.845Z,100260.34
2023-05-22T12:29:35.220Z,100257.25
2023-05-22T12:32:09.220Z,100249.31
2023-05-22T12:34:41.967Z,100260.66
2023-05-22T12:37:24.470Z,100256.81
2023-05-22T12:39:58.435Z,100255.41
2023-05-22T12:42:26.242Z,100255.38
2023-05-22T12:44:53.844Z,100254.13
2023-05-22T12:47:20.631Z,100251.13
2023-05-22T12:49:46.997Z,100253.03
2023-05-22T12:52:13.419Z,100258.63
2023-05-22T12:54:39.892Z,100253.97
2023-05-22T12:57:06.289Z,100259.34
2023-05-22T12:59:33.227Z,100243.44
2023-05-22T13:02:00.223Z,100249.31
2023-05-22T13:04:26.734Z,100245.44
2023-05-22T13:06:53.251Z,100242.66
2023-05-22T13:09:20.039Z,100241.88
2023-05-22T13:11:47.091Z,100236.44
2023-05-22T13:14:17.844Z,100241.88
2023-05-22T13:16:44.251Z,100232.91
2023-05-22T13:19:10.781Z,100238.19
2023-05-22T13:21:37.334Z,100237.91
2023-05-22T13:24:03.928Z,100238.56
2023-05-22T13:26:30.334Z,100238.44
2023-05-22T13:28:56.692Z,100237.19
2023-05-22T13:31:23.085Z,100241.56
2023-05-22T13:33:49.595Z,100247.38
2023-05-22T13:36:16.655Z,100244.56
2023-05-22T13:38:43.035Z,100243.09
2023-05-22T13:41:09.461Z,100242.09
2023-05-22T13:43:35.855Z,100238.19
2023-05-22T13:46:02.210Z,100231.78
2023-05-22T13:48:28.575Z,100232.88
2023-05-22T13:50:54.919Z,100226.13
2023-05-22T13:53:21.252Z,100219.63
2023-05-22T13:55:47.614Z,100215.50
2023-05-22T13:58:13.978Z,100198.78
2023-05-22T14:00:40.350Z,100197.91
2023-05-22T14:03:06.855Z,100194.97
2023-05-22T14:05:33.383Z,100188.84
2023-05-22T14:07:59.745Z,100203.84
2023-05-22T14:10:26.119Z,100211.44
2023-05-22T14:12:52.507Z,100207.78
2023-05-22T14:15:18.845Z,100218.91
2023-05-22T14:17:46.717Z,100214.25
2023-05-22T14:20:13.092Z,100206.13
2023-05-22T14:22:55.853Z,100215.66
2023-05-22T14:25:24.259Z,100222.63
2023-05-22T14:27:50.660Z,100249.97
2023-05-22T14:30:17.169Z,100252.63
2023-05-22T14:32:43.568Z,100262.38
2023-05-22T14:35:10.027Z,100255.41
2023-05-22T14:37:36.642Z,100245.91
2023-05-22T14:40:03.142Z,100239.56
2023-05-22T14:42:29.606Z,100243.47
2023-05-22T14:44:55.968Z,100247.38
2023-05-22T14:47:22.360Z,100249.81
2023-05-22T14:49:48.707Z,100252.13
2023-05-22T14:52:15.120Z,100264.75
2023-05-22T14:54:41.465Z,100260.81
2023-05-22T14:57:07.823Z,100267.94
2023-05-22T14:59:34.183Z,100269.88
2023-05-22T15:02:00.573Z,100265.03
2023-05-22T15:04:26.999Z,100268.59
2023-05-22T15:06:53.391Z,100273.09
2023-05-22T15:09:19.757Z,100272.69
2023-05-22T15:11:46.117Z,100275.28
2023-05-22T15:14:12.589Z,100276.78
2023-05-22T15:16:38.927Z,100270.94
2023-05-22T15:19:05.369Z,100276.91
2023-05-22T15:21:31.741Z,100273.53
2023-05-22T15:23:58.104Z,100254.69
2023-05-22T15:26:24.778Z,100245.72
2023-05-22T15:28:51.150Z,100261.00
2023-05-22T15:31:17.546Z,100255.25
2023-05-22T15:33:43.921Z,100261.22
2023-05-22T15:36:10.269Z,100261.34
2023-05-22T15:38:36.668Z,100257.84
2023-05-22T15:41:03.013Z,100262.31
2023-05-22T15:43:29.407Z,100255.19
2023-05-22T15:45:55.818Z,100247.53
2023-05-22T15:48:22.436Z,100251.91
2023-05-22T15:50:48.807Z,100261.59
2023-05-22T15:53:15.151Z,100258.22
2023-05-22T15:55:41.683Z,100272.03
2023-05-22T15:58:08.218Z,100259.56
2023-05-22T16:00:34.555Z,100257.38
2023-05-22T16:03:00.958Z,100242.91
2023-05-22T16:05:27.353Z,100241.13
2023-05-22T16:07:53.724Z,100241.47
2023-05-22T16:10:20.056Z,100238.91
2023-05-22T16:12:46.386Z,100241.63
2023-05-22T16:15:12.739Z,100247.09
2023-05-22T16:17:39.179Z,100257.16
2023-05-22T16:20:06.845Z,100284.22
2023-05-22T16:22:47.445Z,100299.53
2023-05-22T16:25:16.256Z,100306.06
2023-05-22T16:27:42.698Z,100331.66
2023-05-22T16:30:09.343Z,100372.75
2023-05-22T16:32:35.740Z,100382.03
2023-05-22T16:35:02.188Z,100375.66
2023-05-22T16:37:28.554Z,100391.25
2023-05-22T16:39:54.910Z,100408.50
2023-05-22T16:42:21.283Z,100408.28
2023-05-22T16:44:47.676Z,100414.81
2023-05-22T16:47:14.016Z,100412.25
2023-05-22T16:49:40.390Z,100401.09
2023-05-22T16:52:06.748Z,100398.22
2023-05-22T16:54:33.253Z,100376.50
2023-05-22T16:56:59.599Z,100359.59
2023-05-22T16:59:25.953Z,100348.72
2023-05-22T17:01:52.307Z,100346.16
2023-05-22T17:04:18.680Z,100329.63
2023-05-22T17:06:45.039Z,100310.59
2023-05-22T17:09:11.394Z,100314.03
2023-05-22T17:11:37.757Z,100310.94
2023-05-22T17:14:04.579Z,100308.91
2023-05-22T17:16:31.718Z,100314.63
2023-05-22T17:18:58.129Z,100325.59
2023-05-22T17:21:24.617Z,100329.69
2023-05-22T17:23:51.051Z,100331.88
2023-05-22T17:26:17.464Z,100326.13
2023-05-22T17:28:43.815Z,100322.91
2023-05-22T17:31:10.224Z,100322.84
2023-05-22T17:33:36.608Z,100313.25
2023-05-22T17:36:03.062Z,100308.66
2023-05-22T17:38:29.388Z,100311.84
2023-05-22T17:40:55.824Z,100317.59
2023-05-22T17:43:22.175Z,100305.25
2023-05-22T17:45:48.731Z,100298.69
2023-05-22T17:48:18.861Z,100302.88
2023-05-22T17:50:45.292Z,100299.00
2023-05-22T17:53:11.696Z,100289.19
2023-05-22T17:55:38.052Z,100286.34
2023-05-22T17:58:04.781Z,100290.34
2023-05-22T18:00:34.718Z,100301.97
2023-05-22T18:03:01.186Z,100304.59
2023-05-22T18:05:27.621Z,100313.94
2023-05-22T18:07:54.016Z,100328.06
2023-05-22T18:10:22.828Z,100336.69
2023-05-22T18:12:49.206Z,100357.94
2023-05-22T18:15:15.602Z,100377.81
2023-05-22T18:17:42.013Z,100399.41
2023-05-22T18:20:09.236Z,100431.63
2023-05-22T18:22:37.368Z,100446.47
2023-05-22T18:25:04.696Z,100445.44
2023-05-22T18:27:31.124Z,100443.63
2023-05-22T18:29:57.652Z,100444.63
2023-05-22T18:32:24.429Z,100442.56
2023-05-22T18:34:51.245Z,100428.03
2023-05-22T18:37:18.532Z,100425.44
2023-05-22T18:39:48.511Z,100428.28
2023-05-22T18:42:14.971Z,100422.59
2023-05-22T18:44:41.590Z,100416.28
2023-05-22T18:47:08.004Z,100414.50
2023-05-22T18:49:34.404Z,100412.44
2023-05-22T18:52:00.758Z,100411.97
2023-05-22T18:54:27.124Z,100418.88
2023-05-22T18:56:53.474Z,100422.00
2023-05-22T18:59:20.191Z,100412.75
2023-05-22T19:01:46.551Z,100422.22
2023-05-22T19:04:12.933Z,100423.81
2023-05-22T19:06:39.330Z,100423.22
2023-05-22T19:09:05.706Z,100422.81
2023-05-22T19:11:32.085Z,100425.19
2023-05-22T19:13:58.449Z,100426.75
2023-05-22T19:16:24.838Z,100412.16
2023-05-22T19:18:51.285Z,100417.22
2023-05-22T19:21:17.693Z,100404.00
2023-05-22T19:23:44.973Z,100402.38
2023-05-22T19:26:11.833Z,100398.03
2023-05-22T19:28:38.216Z,100392.28
2023-05-22T19:31:04.685Z,100395.19
2023-05-22T19:33:31.077Z,100400.16
2023-05-22T19:35:58.621Z,100400.81
2023-05-22T19:38:25.068Z,100397.59
2023-05-22T19:40:51.474Z,100400.34
2023-05-22T19:43:17.973Z,100406.88
2023-05-22T19:45:44.395Z,100412.91
2023-05-22T19:48:11.204Z,100413.66
2023-05-22T19:50:37.686Z,100412.19
2023-05-22T19:53:04.152Z,100418.09
2023-05-22T19:55:30.526Z,100427.88
2023-05-22T19:57:56.886Z,100424.44
2023-05-22T20:00:25.135Z,100424.31
2023-05-22T20:02:51.672Z,100429.13
2023-05-22T20:05:18.129Z,100426.41
2023-05-22T20:07:44.802Z,100424.44
2023-05-22T20:10:11.345Z,100428.69
2023-05-22T20:12:38.327Z,100429.28
2023-05-22T20:15:05.218Z,100424.25
2023-05-22T20:17:31.594Z,100425.22
2023-05-22T20:19:57.957Z,100426.34
2023-05-22T20:22:24.901Z,100430.59
2023-05-22T20:24:52.679Z,100431.75
2023-05-22T20:27:19.775Z,100444.69
2023-05-22T20:29:46.154Z,100436.06
2023-05-22T20:32:12.704Z,100431.25
2023-05-22T20:34:39.187Z,100433.56
2023-05-22T20:37:05.664Z,100425.97
2023-05-22T20:39:32.095Z,100429.84
2023-05-22T20:41:58.425Z,100427.44
2023-05-22T20:44:24.792Z,100425.69
2023-05-22T20:46:51.501Z,100420.94
2023-05-22T20:49:17.851Z,100424.69
2023-05-22T20:51:44.185Z,100426.13
2023-05-22T20:54:10.546Z,100425.47
2023-05-22T20:56:36.897Z,100427.34
2023-05-22T20:59:03.255Z,100425.59
2023-05-22T21:01:29.714Z,100430.00
2023-05-22T21:03:56.198Z,100444.78
2023-05-22T21:06:23.194Z,100449.25
2023-05-22T21:08:50.926Z,100441.34
2023-05-22T21:11:18.907Z,100439.97
2023-05-22T21:13:45.377Z,100445.34
2023-05-22T21:16:11.730Z,100444.72
2023-05-22T21:18:38.278Z,100439.06
2023-05-22T21:21:04.749Z,100437.56
2023-05-22T21:23:31.091Z,100437.09
2023-05-22T21:25:57.429Z,100440.47
2023-05-22T21:28:24.088Z,100442.47
2023-05-22T21:30:50.518Z,100431.25
2023-05-22T21:33:16.874Z,100435.63
2023-05-22T21:35:43.241Z,100439.09
2023-05-22T21:38:09.587Z,100435.22
2023-05-22T21:40:35.945Z,100433.44
2023-05-22T21:43:02.334Z,100431.41
2023-05-22T21:45:28.694Z,100441.03
2023-05-22T21:47:55.122Z,100444.03
2023-05-22T21:50:21.543Z,100442.22
2023-05-22T21:52:47.887Z,100454.31
2023-05-22T21:55:14.361Z,100451.50
2023-05-22T21:57:40.712Z,100464.66
2023-05-22T22:00:07.751Z,100453.13
2023-05-22T22:02:34.316Z,100471.94
2023-05-22T22:05:00.742Z,100470.16
2023-05-22T22:07:27.087Z,100461.94
2023-05-22T22:09:53.507Z,100462.84
2023-05-22T22:12:19.905Z,100465.13
2023-05-22T22:14:46.286Z,100463.06
2023-05-22T22:17:12.673Z,100468.06
2023-05-22T22:19:39.067Z,100469.41
2023-05-22T22:22:05.664Z,100481.56
2023-05-22T22:24:32.003Z,100476.78
2023-05-22T22:26:58.354Z,100467.50
2023-05-22T22:29:24.709Z,100470.41
2023-05-22T22:31:51.120Z,100468.88
2023-05-22T22:34:17.515Z,100465.91
2023-05-22T22:36:44.213Z,100465.91
2023-05-22T22:39:10.955Z,100471.09
2023-05-22T22:41:37.325Z,100467.88
2023-05-22T22:44:03.744Z,100467.41
2023-05-22T22:46:30.171Z,100467.63
2023-05-22T22:48:56.525Z,100471.06
2023-05-22T22:51:22.914Z,100470.72
2023-05-22T22:53:49.277Z,100467.91
2023-05-22T22:56:15.776Z,100476.25
2023-05-22T22:58:42.126Z,100477.13
2023-05-22T23:01:08.574Z,100475.03
2023-05-22T23:03:34.957Z,100471.66
2023-05-22T23:06:01.414Z,100472.59
2023-05-22T23:08:27.758Z,100474.56
2023-05-22T23:10:54.105Z,100470.50
2023-05-22T23:13:20.509Z,100474.22
2023-05-22T23:15:46.896Z,100484.66
2023-05-22T23:18:13.306Z,100489.97
2023-05-22T23:20:39.697Z,100479.22
2023-05-22T23:23:06.031Z,100488.84
2023-05-22T23:25:32.369Z,100493.66
2023-05-22T23:27:58.771Z,100490.94
2023-05-22T23:30:25.142Z,100497.03
2023-05-22T23:32:51.517Z,100493.84
2023-05-22T23:35:17.937Z,100495.13
2023-05-22T23:37:44.308Z,100484.97
2023-05-22T23:40:11.146Z,100489.16
2023-05-22T23:42:37.536Z,100487.06
2023-05-22T23:45:04.206Z,100492.53
2023-05-22T23:47:30.635Z,100487.22
2023-05-22T23:49:57.033Z,100489.16
2023-05-22T23:52:23.374Z,100492.66
2023-05-22T23:54:49.725Z,100488.31
2023-05-22T23:57:16.099Z,100486.22
2023-05-22T23:59:42.453Z,100482.03
